createdAt,value
2023-04-15T00:00:59.382Z,8.20
2023-04-15T00:03:26.414Z,8.30
2023-04-15T00:05:53.229Z,8.00
2023-04-15T00:08:21.501Z,7.90
2023-04-15T00:10:48.206Z,8.00
2023-04-15T00:13:15.558Z,8.10
2023-04-15T00:15:43.224Z,8.10
2023-04-15T00:18:10.217Z,8.20
2023-04-15T00:20:37.280Z,8.50
2023-04-15T00:23:04.417Z,8.70
2023-04-15T00:25:31.644Z,8.90
2023-04-15T00:27:58.825Z,9.00
2023-04-15T00:30:26.663Z,7.60
2023-04-15T00:32:53.579Z,8.80
2023-04-15T00:35:20.694Z,8.70
2023-04-15T00:37:47.458Z,8.60
2023-04-15T00:40:17.765Z,8.80
2023-04-15T00:42:45.595Z,8.80
2023-04-15T00:45:12.942Z,8.90
2023-04-15T00:47:43.013Z,8.90
2023-04-15T00:50:10.988Z,8.80
2023-04-15T00:52:37.742Z,8.90
2023-04-15T00:55:05.845Z,8.80
2023-04-15T00:57:33.230Z,8.90
2023-04-15T01:00:01.087Z,8.80
2023-04-15T01:02:28.200Z,8.90
2023-04-15T01:04:58.668Z,8.70
2023-04-15T01:07:25.604Z,8.80
2023-04-15T01:09:53.025Z,9.20
2023-04-15T01:12:20.614Z,9.20
2023-04-15T01:14:47.440Z,9.10
2023-04-15T01:17:14.486Z,9.20
2023-04-15T01:19:41.879Z,9.20
2023-04-15T01:22:09.211Z,9.20
2023-04-15T01:24:36.977Z,9.10
2023-04-15T01:27:07.544Z,9.20
2023-04-15T01:29:38.681Z,9.30
2023-04-15T01:32:05.903Z,9.30
2023-04-15T01:34:35.058Z,9.20
2023-04-15T01:37:02.408Z,9.30
2023-04-15T01:39:29.256Z,8.10
2023-04-15T01:41:56.013Z,9.30
2023-04-15T01:44:22.777Z,9.00
2023-04-15T01:46:49.680Z,9.10
2023-04-15T01:49:17.023Z,8.90
2023-04-15T01:51:43.846Z,8.90
2023-04-15T01:54:10.591Z,9.00
2023-04-15T01:56:37.408Z,9.00
2023-04-15T01:59:04.188Z,9.10
2023-04-15T02:01:31.026Z,8.80
2023-04-15T02:03:58.011Z,8.90
2023-04-15T02:06:25.487Z,9.20
2023-04-15T02:08:52.274Z,9.30
2023-04-15T02:11:19.777Z,9.10
2023-04-15T02:13:46.586Z,9.00
2023-04-15T02:16:18.142Z,9.00
2023-04-15T02:18:48.199Z,9.00
2023-04-15T02:21:15.084Z,8.70
2023-04-15T02:23:41.903Z,8.80
2023-04-15T02:26:08.695Z,8.60
2023-04-15T02:28:35.874Z,8.50
2023-04-15T02:31:09.634Z,8.70
2023-04-15T02:33:37.792Z,8.80
2023-04-15T02:36:04.926Z,8.70
2023-04-15T02:38:32.054Z,8.50
2023-04-15T02:40:58.758Z,8.60
2023-04-15T02:43:25.517Z,8.60
2023-04-15T02:45:52.356Z,8.60
2023-04-15T02:48:20.311Z,8.50
2023-04-15T02:50:48.085Z,8.60
2023-04-15T02:53:14.913Z,8.70
2023-04-15T02:55:42.810Z,8.60
2023-04-15T02:58:09.685Z,8.70
2023-04-15T03:00:36.446Z,8.70
2023-04-15T03:03:04.958Z,8.70
2023-04-15T03:05:32.314Z,9.00
2023-04-15T03:07:59.094Z,8.70
2023-04-15T03:10:25.867Z,8.60
2023-04-15T03:12:52.732Z,8.80
2023-04-15T03:15:19.517Z,8.60
2023-04-15T03:17:46.320Z,8.50
2023-04-15T03:20:13.364Z,8.60
2023-04-15T03:22:40.362Z,8.50
2023-04-15T03:25:07.658Z,8.40
2023-04-15T03:27:34.396Z,8.30
2023-04-15T03:30:01.103Z,8.20
2023-04-15T03:32:27.928Z,8.20
2023-04-15T03:34:54.721Z,8.30
2023-04-15T03:37:21.628Z,8.50
2023-04-15T03:39:48.376Z,8.60
2023-04-15T03:42:15.119Z,8.50
2023-04-15T03:44:42.252Z,8.30
2023-04-15T03:47:08.983Z,8.40
2023-04-15T03:49:36.900Z,8.40
2023-04-15T03:52:03.710Z,7.90
2023-04-15T03:54:30.548Z,8.10
2023-04-15T03:56:57.734Z,8.30
2023-04-15T03:59:24.492Z,8.40
2023-04-15T04:01:51.403Z,8.50
2023-04-15T04:04:18.473Z,8.90
2023-04-15T04:06:45.245Z,8.40
2023-04-15T04:09:11.992Z,8.60
2023-04-15T04:11:38.695Z,8.40
2023-04-15T04:14:05.702Z,8.50
2023-04-15T04:16:32.494Z,8.50
2023-04-15T04:18:59.423Z,8.40
2023-04-15T04:21:26.814Z,8.20
2023-04-15T04:23:53.675Z,8.40
2023-04-15T04:26:20.644Z,8.40
2023-04-15T04:28:47.417Z,8.20
2023-04-15T04:31:14.246Z,8.40
2023-04-15T04:33:41.277Z,8.60
2023-04-15T04:36:08.103Z,8.80
2023-04-15T04:38:34.842Z,8.50
2023-04-15T04:41:01.578Z,8.70
2023-04-15T04:43:28.402Z,8.70
2023-04-15T04:45:55.141Z,8.60
2023-04-15T04:48:21.925Z,8.70
2023-04-15T04:50:48.938Z,8.70
2023-04-15T04:53:16.285Z,8.60
2023-04-15T04:55:43.009Z,8.70
2023-04-15T04:58:09.779Z,8.60
2023-04-15T05:00:37.920Z,8.60
2023-04-15T05:03:05.372Z,8.70
2023-04-15T05:05:32.791Z,9.00
2023-04-15T05:07:59.624Z,8.80
2023-04-15T05:10:26.460Z,8.90
2023-04-15T05:12:53.198Z,9.00
2023-04-15T05:15:20.347Z,8.80
2023-04-15T05:17:47.137Z,8.70
2023-04-15T05:20:14.439Z,8.70
2023-04-15T05:22:41.259Z,8.90
2023-04-15T05:25:08.732Z,8.80
2023-04-15T05:27:36.093Z,8.90
2023-04-15T05:30:03.038Z,8.90
2023-04-15T05:32:29.800Z,8.70
2023-04-15T05:34:56.678Z,8.50
2023-04-15T05:37:23.539Z,8.30
2023-04-15T05:39:50.261Z,8.60
2023-04-15T05:42:16.974Z,8.60
2023-04-15T05:44:43.868Z,8.70
2023-04-15T05:47:11.004Z,8.60
2023-04-15T05:49:37.737Z,8.40
2023-04-15T05:52:04.605Z,8.50
2023-04-15T05:54:31.687Z,8.60
2023-04-15T05:56:59.032Z,7.80
2023-04-15T05:59:26.045Z,8.40
2023-04-15T06:01:52.997Z,8.70
2023-04-15T06:04:19.861Z,8.80
2023-04-15T06:06:47.195Z,9.00
2023-04-15T06:09:14.167Z,9.10
2023-04-15T06:11:41.586Z,9.10
2023-04-15T06:14:08.707Z,9.00
2023-04-15T06:16:36.765Z,9.30
2023-04-15T06:19:03.920Z,9.20
2023-04-15T06:21:31.658Z,9.30
2023-04-15T06:24:03.798Z,9.00
2023-04-15T06:26:31.404Z,9.30
2023-04-15T06:28:58.243Z,9.30
2023-04-15T06:31:25.170Z,9.50
2023-04-15T06:33:51.970Z,9.60
2023-04-15T06:36:18.785Z,9.30
2023-04-15T06:38:45.588Z,9.30
2023-04-15T06:41:12.446Z,9.40
2023-04-15T06:43:39.787Z,9.30
2023-04-15T06:46:07.220Z,9.40
2023-04-15T06:48:34.027Z,9.30
2023-04-15T06:51:00.856Z,9.30
2023-04-15T06:53:28.119Z,9.10
2023-04-15T06:55:55.071Z,9.30
2023-04-15T06:58:22.318Z,9.40
2023-04-15T07:00:49.317Z,9.20
2023-04-15T07:03:16.230Z,9.30
2023-04-15T07:05:43.560Z,9.30
2023-04-15T07:08:10.361Z,9.60
2023-04-15T07:10:37.318Z,9.80
2023-04-15T07:13:04.712Z,9.80
2023-04-15T07:15:31.415Z,9.60
2023-04-15T07:17:58.190Z,9.60
2023-04-15T07:20:25.103Z,9.30
2023-04-15T07:22:51.971Z,9.30
2023-04-15T07:25:19.062Z,9.20
2023-04-15T07:27:45.927Z,8.90
2023-04-15T07:30:13.231Z,9.10
2023-04-15T07:32:40.600Z,9.10
2023-04-15T07:35:07.825Z,9.20
2023-04-15T07:37:34.610Z,9.20
2023-04-15T07:40:01.920Z,9.30
2023-04-15T07:42:29.385Z,9.30
2023-04-15T07:44:56.645Z,9.50
2023-04-15T07:47:23.548Z,9.50
2023-04-15T07:49:51.530Z,9.60
2023-04-15T07:52:18.718Z,9.70
2023-04-15T07:54:45.666Z,9.90
2023-04-15T07:57:12.352Z,9.80
2023-04-15T07:59:39.157Z,9.60
2023-04-15T08:02:06.119Z,9.80
2023-04-15T08:04:34.139Z,10.10
2023-04-15T08:07:01.054Z,10.10
2023-04-15T08:09:27.779Z,10.00
2023-04-15T08:11:54.673Z,9.80
2023-04-15T08:14:21.643Z,9.90
2023-04-15T08:16:48.420Z,10.20
2023-04-15T08:19:15.217Z,10.40
2023-04-15T08:21:41.987Z,10.50
2023-04-15T08:24:08.789Z,10.20
2023-04-15T08:26:35.824Z,10.00
2023-04-15T08:29:02.852Z,10.10
2023-04-15T08:31:30.530Z,10.70
2023-04-15T08:33:58.573Z,11.00
2023-04-15T08:36:25.573Z,10.60
2023-04-15T08:38:52.352Z,10.90
2023-04-15T08:41:23.881Z,11.00
2023-04-15T08:43:58.549Z,10.60
2023-04-15T08:46:26.103Z,10.70
2023-04-15T08:48:56.490Z,10.60
2023-04-15T08:51:25.122Z,10.70
2023-04-15T08:53:52.653Z,10.70
2023-04-15T08:56:20.337Z,10.70
2023-04-15T08:58:47.757Z,10.70
2023-04-15T09:01:14.847Z,10.60
2023-04-15T09:03:42.545Z,10.60
2023-04-15T09:06:09.558Z,10.90
2023-04-15T09:08:36.302Z,10.90
2023-04-15T09:11:04.217Z,11.40
2023-04-15T09:13:31.716Z,11.70
2023-04-15T09:16:04.519Z,11.70
2023-04-15T09:18:34.988Z,11.70
2023-04-15T09:21:08.759Z,11.40
2023-04-15T09:23:36.296Z,11.30
2023-04-15T09:26:03.699Z,11.50
2023-04-15T09:28:31.035Z,11.50
2023-04-15T09:30:58.221Z,11.40
2023-04-15T09:33:27.244Z,11.50
2023-04-15T09:36:02.368Z,11.20
2023-04-15T09:38:29.283Z,11.40
2023-04-15T09:40:56.090Z,11.30
2023-04-15T09:43:23.573Z,11.30
2023-04-15T09:45:54.343Z,11.30
2023-04-15T09:48:25.762Z,11.30
2023-04-15T09:50:54.069Z,11.20
2023-04-15T09:53:21.981Z,11.50
2023-04-15T09:56:00.831Z,11.70
2023-04-15T09:58:33.271Z,11.70
2023-04-15T10:01:03.234Z,11.90
2023-04-15T10:03:35.980Z,11.40
2023-04-15T10:06:03.703Z,11.70
2023-04-15T10:08:33.674Z,12.20
2023-04-15T10:11:05.009Z,13.80
2023-04-15T10:13:37.493Z,12.50
2023-04-15T10:16:14.200Z,12.60
2023-04-15T10:18:46.885Z,12.30
2023-04-15T10:21:18.362Z,12.10
2023-04-15T10:23:48.794Z,12.60
2023-04-15T10:26:17.538Z,12.90
2023-04-15T10:28:45.077Z,12.90
2023-04-15T10:31:15.006Z,12.70
2023-04-15T10:33:43.339Z,12.70
2023-04-15T10:36:11.676Z,12.80
2023-04-15T10:38:41.951Z,13.00
2023-04-15T10:41:26.632Z,12.90
2023-04-15T10:43:54.927Z,13.00
2023-04-15T10:46:25.795Z,13.60
2023-04-15T10:48:54.023Z,13.80
2023-04-15T10:51:29.385Z,14.10
2023-04-15T10:54:02.367Z,14.50
2023-04-15T10:56:30.774Z,14.40
2023-04-15T10:59:00.565Z,14.60
2023-04-15T11:01:57.616Z,14.20
2023-04-15T11:04:57.435Z,14.20
2023-04-15T11:07:46.810Z,14.40
2023-04-15T11:10:25.990Z,14.30
2023-04-15T11:12:56.744Z,14.40
2023-04-15T11:15:34.463Z,14.20
2023-04-15T11:18:16.450Z,14.40
2023-04-15T11:20:48.870Z,14.80
2023-04-15T11:23:19.238Z,15.10
2023-04-15T11:25:46.195Z,15.30
2023-04-15T11:28:13.779Z,15.40
2023-04-15T11:30:42.497Z,15.40
2023-04-15T11:33:12.285Z,15.10
2023-04-15T11:35:42.407Z,14.90
2023-04-15T11:38:11.995Z,15.50
2023-04-15T11:40:40.318Z,15.40
2023-04-15T11:43:10.759Z,15.40
2023-04-15T11:45:49.191Z,15.10
2023-04-15T11:48:17.525Z,15.20
2023-04-15T11:50:44.583Z,15.40
2023-04-15T11:53:13.795Z,15.20
2023-04-15T11:55:51.342Z,15.50
2023-04-15T11:58:24.189Z,15.80
2023-04-15T12:00:55.597Z,16.50
2023-04-15T12:03:28.130Z,16.50
2023-04-15T12:06:13.083Z,16.00
2023-04-15T12:09:05.631Z,16.00
2023-04-15T12:11:42.896Z,16.80
2023-04-15T12:14:33.879Z,17.50
2023-04-15T12:17:02.964Z,17.60
2023-04-15T12:19:41.731Z,17.00
2023-04-15T12:22:13.939Z,17.10
2023-04-15T12:24:44.643Z,17.10
